createdAt,value
2023-02-20T00:01:51.504Z,1.50
2023-02-20T00:06:54.619Z,1.60
2023-02-20T00:11:57.716Z,1.80
2023-02-20T00:17:01.530Z,1.80
2023-02-20T00:22:04.798Z,1.80
2023-02-20T00:27:08.769Z,1.50
2023-02-20T00:32:12.771Z,1.50
2023-02-20T00:37:16.008Z,1.80
2023-02-20T00:42:19.221Z,1.60
2023-02-20T00:47:22.427Z,1.60
2023-02-20T00:52:26.200Z,1.00
2023-02-20T00:57:29.256Z,1.70
2023-02-20T01:02:32.433Z,1.40
2023-02-20T01:07:35.565Z,1.80
2023-02-20T01:12:39.301Z,1.70
2023-02-20T01:17:42.498Z,1.50
2023-02-20T01:22:45.508Z,2.20
2023-02-20T01:27:48.715Z,1.50
2023-02-20T01:32:51.714Z,1.60
2023-02-20T01:37:54.965Z,1.10
2023-02-20T01:42:58.136Z,1.10
2023-02-20T01:48:01.794Z,1.60
2023-02-20T01:53:12.777Z,1.60
2023-02-20T01:58:23.414Z,1.60
2023-02-20T02:03:33.907Z,1.50
2023-02-20T02:08:39.848Z,1.00
2023-02-20T02:13:44.725Z,1.30
2023-02-20T02:19:35.863Z,1.50
2023-02-20T02:25:13.058Z,1.50
2023-02-20T02:30:59.522Z,1.30
2023-02-20T02:36:17.957Z,1.20
2023-02-20T02:41:32.218Z,1.30
2023-02-20T02:46:43.041Z,1.40
2023-02-20T02:51:48.171Z,1.50
2023-02-20T02:56:51.297Z,1.40
2023-02-20T03:02:03.676Z,1.50
2023-02-20T03:07:19.947Z,1.70
2023-02-20T03:12:27.449Z,1.90
2023-02-20T03:17:40.812Z,2.20
2023-02-20T03:23:04.802Z,1.90
2023-02-20T03:28:21.211Z,1.70
2023-02-20T03:33:56.354Z,1.50
2023-02-20T03:39:27.191Z,1.90
2023-02-20T03:44:31.982Z,1.00
2023-02-20T03:49:43.275Z,1.20
2023-02-20T03:54:47.056Z,1.30
2023-02-20T04:00:03.680Z,1.30
2023-02-20T04:05:18.459Z,1.50
2023-02-20T04:10:31.341Z,1.10
2023-02-20T04:15:35.837Z,1.30
2023-02-20T04:20:39.738Z,1.00
2023-02-20T04:26:09.861Z,1.30
2023-02-20T04:31:16.538Z,1.20
2023-02-20T04:36:20.917Z,1.10
2023-02-20T04:41:24.307Z,1.40
2023-02-20T04:46:27.901Z,2.00
2023-02-20T04:51:30.929Z,1.10
2023-02-20T04:56:34.061Z,1.50
2023-02-20T05:01:37.240Z,2.20
2023-02-20T05:06:44.218Z,1.50
2023-02-20T05:11:47.973Z,1.30
2023-02-20T05:16:51.506Z,1.30
2023-02-20T05:22:20.625Z,1.80
2023-02-20T05:27:25.465Z,1.20
2023-02-20T05:32:31.305Z,1.60
2023-02-20T05:37:34.325Z,1.60
2023-02-20T05:42:37.960Z,2.20
2023-02-20T05:47:41.384Z,2.40
2023-02-20T05:52:45.114Z,1.80
2023-02-20T05:57:48.301Z,2.40
2023-02-20T06:02:51.412Z,2.20
2023-02-20T06:07:54.616Z,2.20
2023-02-20T06:12:57.726Z,2.00
2023-02-20T06:18:00.932Z,2.20
2023-02-20T06:23:05.271Z,2.30
2023-02-20T06:28:08.579Z,2.30
2023-02-20T06:33:11.788Z,2.40
2023-02-20T06:38:15.428Z,2.80
2023-02-20T06:43:19.337Z,1.90
2023-02-20T06:48:22.446Z,2.80
2023-02-20T06:53:25.595Z,2.50
2023-02-20T06:58:28.657Z,2.80
2023-02-20T07:03:31.770Z,3.90
2023-02-20T07:08:34.974Z,3.20
2023-02-20T07:13:38.099Z,3.90
2023-02-20T07:18:41.286Z,1.70
2023-02-20T07:23:45.744Z,2.00
2023-02-20T07:28:48.934Z,2.60
2023-02-20T07:33:51.934Z,2.80
2023-02-20T07:39:01.079Z,3.00
2023-02-20T07:44:04.923Z,2.60
2023-02-20T07:49:08.116Z,3.40
2023-02-20T07:54:11.224Z,4.60
2023-02-20T07:59:14.430Z,4.70
2023-02-20T08:04:17.853Z,4.30
2023-02-20T08:09:20.948Z,3.90
2023-02-20T08:14:24.261Z,3.90
2023-02-20T08:19:27.385Z,3.50
2023-02-20T08:24:30.583Z,2.70
2023-02-20T08:29:33.786Z,3.40
2023-02-20T08:34:36.989Z,4.20
2023-02-20T08:39:40.196Z,3.50
2023-02-20T08:44:43.850Z,2.70
2023-02-20T08:49:49.092Z,4.80
2023-02-20T08:54:52.386Z,4.40
2023-02-20T08:59:55.596Z,4.40
2023-02-20T09:04:59.029Z,5.10
2023-02-20T09:10:02.522Z,3.60
2023-02-20T09:15:06.221Z,3.60
2023-02-20T09:20:10.745Z,3.30
2023-02-20T09:25:15.634Z,3.20
2023-02-20T09:30:21.412Z,2.10
2023-02-20T09:35:29.630Z,2.80
2023-02-20T09:40:33.149Z,2.40
2023-02-20T09:45:41.529Z,2.00
2023-02-20T09:56:06.841Z,2.70
2023-02-20T10:01:15.200Z,2.30
2023-02-20T10:06:23.307Z,2.10
2023-02-20T10:11:32.330Z,2.20
2023-02-20T10:16:46.782Z,2.30
2023-02-20T10:22:13.463Z,2.90
2023-02-20T10:27:49.141Z,3.60
2023-02-20T10:33:17.153Z,4.00
2023-02-20T10:38:26.777Z,4.00
2023-02-20T10:43:48.042Z,3.10
2023-02-20T10:48:56.756Z,3.90
2023-02-20T11:00:03.004Z,4.00
2023-02-20T11:05:16.376Z,5.30
2023-02-20T11:10:20.995Z,3.10
2023-02-20T11:15:28.972Z,5.00
2023-02-20T11:20:32.292Z,4.80
2023-02-20T11:25:38.784Z,5.80
2023-02-20T11:30:46.612Z,6.30
2023-02-20T11:35:56.664Z,6.20
2023-02-20T11:41:07.810Z,6.00
2023-02-20T11:46:14.628Z,7.10
2023-02-20T11:51:39.803Z,7.00
2023-02-20T11:57:02.880Z,6.10
2023-02-20T12:02:18.253Z,9.30
2023-02-20T12:07:29.431Z,6.60
2023-02-20T12:12:33.569Z,8.20
2023-02-20T12:18:14.891Z,6.90
2023-02-20T12:23:39.487Z,6.00
2023-02-20T12:29:27.965Z,6.10
2023-02-20T12:40:33.652Z,6.50
2023-02-20T12:46:02.359Z,6.70
2023-02-20T12:57:57.722Z,9.20
2023-02-20T13:03:17.195Z,8.80
2023-02-20T13:08:33.869Z,6.90
2023-02-20T13:14:01.942Z,7.90
2023-02-20T13:19:24.338Z,8.90
2023-02-20T13:24:31.228Z,8.00
2023-02-20T13:30:00.140Z,7.80
2023-02-20T13:35:55.770Z,7.80
2023-02-20T13:41:10.017Z,7.90
2023-02-20T13:46:20.693Z,7.30
2023-02-20T13:51:25.576Z,6.90
2023-02-20T13:56:47.576Z,5.80
2023-02-20T14:02:24.276Z,7.60
2023-02-20T14:07:41.113Z,7.80
2023-02-20T14:12:53.137Z,8.50
2023-02-20T14:17:58.127Z,8.40
2023-02-20T14:23:34.156Z,6.80
2023-02-20T14:34:32.287Z,9.80
2023-02-20T14:39:50.851Z,8.40
2023-02-20T14:50:22.445Z,9.60
2023-02-20T14:55:26.829Z,5.60
2023-02-20T15:00:36.942Z,7.00
2023-02-20T15:05:43.348Z,5.50
2023-02-20T15:10:56.499Z,4.60
2023-02-20T15:16:29.231Z,6.30
2023-02-20T15:21:42.668Z,4.60
2023-02-20T15:26:45.952Z,7.20
2023-02-20T15:32:04.352Z,5.50
2023-02-20T15:37:27.081Z,6.20
2023-02-20T15:42:37.459Z,5.30
2023-02-20T15:47:41.698Z,5.20
2023-02-20T15:52:46.948Z,5.20
2023-02-20T15:57:56.884Z,4.80
2023-02-20T16:03:02.251Z,4.70
2023-02-20T16:08:05.896Z,4.10
2023-02-20T16:13:30.632Z,4.90
2023-02-20T16:19:02.561Z,6.90
2023-02-20T16:24:14.933Z,5.10
2023-02-20T16:29:33.310Z,4.00
2023-02-20T16:34:38.846Z,5.90
2023-02-20T16:39:46.035Z,5.10
2023-02-20T16:45:00.222Z,4.40
2023-02-20T16:50:30.408Z,3.40
2023-02-20T16:55:37.677Z,2.60
2023-02-20T17:00:56.590Z,4.60
2023-02-20T17:06:00.992Z,3.30
2023-02-20T17:11:04.586Z,2.30
2023-02-20T17:16:11.278Z,3.10
2023-02-20T17:21:38.378Z,2.20
2023-02-20T17:26:47.849Z,2.50
2023-02-20T17:32:00.453Z,3.00
2023-02-20T17:37:26.665Z,2.30
2023-02-20T17:42:44.542Z,2.40
2023-02-20T17:48:00.267Z,2.00
2023-02-20T17:53:10.486Z,1.80
2023-02-20T17:58:13.824Z,2.30
2023-02-20T18:03:17.249Z,1.90
2023-02-20T18:08:20.485Z,1.70
2023-02-20T18:13:24.080Z,1.30
2023-02-20T18:18:27.265Z,1.20
2023-02-20T18:23:30.932Z,1.40
2023-02-20T18:28:34.088Z,1.00
2023-02-20T18:33:38.232Z,1.30
2023-02-20T18:38:41.536Z,1.20
2023-02-20T18:43:46.670Z,1.30
2023-02-20T18:48:50.006Z,1.70
2023-02-20T18:53:53.429Z,1.20
2023-02-20T18:58:56.945Z,1.30
2023-02-20T19:04:03.213Z,1.80
2023-02-20T19:09:08.523Z,1.50
2023-02-20T19:14:11.794Z,2.00
2023-02-20T19:19:24.185Z,3.10
2023-02-20T19:24:28.538Z,1.60
2023-02-20T19:29:31.746Z,1.00
2023-02-20T19:34:34.855Z,1.10
2023-02-20T19:39:38.088Z,1.50
2023-02-20T19:44:41.268Z,1.90
2023-02-20T19:49:47.189Z,1.60
2023-02-20T19:54:50.256Z,2.90
2023-02-20T19:59:53.473Z,2.40
2023-02-20T20:04:56.772Z,1.80
2023-02-20T20:10:00.035Z,1.70
2023-02-20T20:15:05.545Z,2.10
2023-02-20T20:20:11.304Z,1.80
2023-02-20T20:25:15.674Z,1.70
2023-02-20T20:30:24.140Z,1.00
2023-02-20T20:35:29.603Z,1.80
2023-02-20T20:40:32.761Z,1.80
2023-02-20T20:45:35.889Z,1.60
2023-02-20T20:50:39.156Z,1.90
2023-02-20T20:55:43.496Z,1.60
2023-02-20T21:00:46.600Z,1.70
2023-02-20T21:05:49.839Z,1.90
2023-02-20T21:10:53.546Z,2.20
2023-02-20T21:15:57.207Z,1.60
2023-02-20T21:21:00.558Z,2.70
2023-02-20T21:26:04.080Z,1.30
2023-02-20T21:31:07.546Z,2.00
2023-02-20T21:36:11.329Z,2.50
2023-02-20T21:41:38.408Z,2.30
2023-02-20T21:46:41.734Z,1.30
2023-02-20T21:51:45.021Z,1.60
2023-02-20T21:56:48.221Z,2.30
2023-02-20T22:01:53.195Z,2.60
2023-02-20T22:07:15.435Z,1.80
2023-02-20T22:12:37.393Z,1.90
2023-02-20T22:17:59.547Z,1.30
2023-02-20T22:23:22.401Z,2.40
2023-02-20T22:28:44.070Z,1.60
2023-02-20T22:34:06.798Z,1.10
2023-02-20T22:39:32.741Z,1.90
2023-02-20T22:44:54.504Z,1.50
2023-02-20T22:50:16.651Z,2.30
2023-02-20T22:55:38.692Z,2.00
2023-02-20T23:01:00.999Z,1.30
2023-02-20T23:06:23.204Z,2.70
2023-02-20T23:11:44.953Z,1.80
2023-02-20T23:17:06.582Z,2.00
2023-02-20T23:22:30.783Z,2.90
2023-02-20T23:27:52.533Z,1.80
2023-02-20T23:33:14.477Z,1.80
2023-02-20T23:38:36.132Z,1.70
2023-02-20T23:43:57.963Z,1.40
2023-02-20T23:49:20.054Z,1.80
2023-02-20T23:54:41.851Z,2.00
